< Cyclone 199403 1994 Season Cyclone 199405 >
Cyclone 199404 (PEARL)
General InformationTrack Information on Google MapsDetailed Wind InformationList of All Images || ResourceGoogle EarthGE AnimationAtom FeedGeoJSON
Detalied Best Track (Time Zone = UTC)
Year Month Day Hour Lat. Long. Pressure (hPa) Wind (kt) Class Image Chart
1994 1 11 00 -15.3 121.4 1004 21 2 Image --
1994 1 11 06 -15.7 120.7 1000 27 2 Image --
1994 1 11 12 -16.1 120.0 995 35 3 Image --
1994 1 11 18 -16.5 119.3 985 47 3 Image --
1994 1 12 00 -16.8 118.6 975 60 4 Image --
1994 1 12 06 -17.0 117.8 965 70 5 Image --
1994 1 12 12 -17.1 116.5 960 76 5 Image --
1994 1 12 18 -16.8 115.2 960 76 5 Image --
1994 1 13 00 -16.4 114.2 960 76 5 Image --
1994 1 13 06 -16.7 113.1 960 76 5 Image --
1994 1 13 12 -16.9 111.8 960 76 5 Image --
1994 1 13 18 -17.2 110.6 960 76 5 Image --
1994 1 14 00 -17.0 109.4 965 70 5 Image --
1994 1 14 06 -16.8 108.1 965 70 5 Image --
1994 1 14 12 -16.9 106.8 965 70 5 Image --
1994 1 14 18 -16.7 105.8 965 70 5 Image --
1994 1 15 00 -16.3 104.8 965 70 5 Image --
1994 1 15 06 -16.2 103.6 965 70 5 Image --
1994 1 15 12 -16.2 102.4 965 70 5 Image --
1994 1 15 18 -16.1 101.3 965 70 5 Image --
1994 1 16 00 -15.9 100.2 955 80 5 Image --
1994 1 16 06 -15.9 98.7 955 80 5 Image --
1994 1 16 12 -15.9 97.5 955 80 5 Image --
1994 1 16 18 -16.1 96.2 955 80 5 Image --
1994 1 17 00 -16.1 95.0 955 80 5 Image --
1994 1 17 06 -16.3 94.0 950 84 5 Image --
1994 1 17 12 -16.3 93.0 950 84 5 Image --
1994 1 17 18 -16.5 92.2 950 84 5 Image --
1994 1 18 00 -16.6 91.4 955 80 5 Image --
1994 1 18 06 -16.8 90.6 960 76 5 Image --
1994 1 18 12 -17.0 89.9 965 70 5 Image --
1994 1 18 18 -17.3 89.2 975 60 4 Image --
1994 1 19 00 -17.8 88.7 985 47 3 Image --
1994 1 19 06 -18.5 88.0 990 41 3 Image --
1994 1 19 12 -19.7 87.6 995 35 3 Image --
1994 1 19 18 -20.8 87.5 995 35 3 Image --
1994 1 20 00 -21.9 87.5 1000 27 2 Image --
1994 1 20 12 -23.1 87.8 1005 19 2 Image --
1994 1 21 00 -24.0 88.8 1005 19 2 Image --
< Cyclone 199403 1994 Season Cyclone 199405 >

Help